createdAt,value
2023-04-03T00:01:45.558Z,0.16
2023-04-03T00:04:34.319Z,0.14
2023-04-03T00:07:23.304Z,0.12
2023-04-03T00:10:12.142Z,0.10
2023-04-03T00:13:00.760Z,0.07
2023-04-03T00:15:49.301Z,0.03
2023-04-03T00:18:39.092Z,-0.00
2023-04-03T00:21:27.574Z,-0.05
2023-04-03T00:24:16.726Z,-0.08
2023-04-03T00:27:05.282Z,-0.10
2023-04-03T00:29:54.188Z,-0.12
2023-04-03T00:32:42.869Z,-0.15
2023-04-03T00:35:32.104Z,-0.18
2023-04-03T00:38:21.470Z,-0.21
2023-04-03T00:41:10.578Z,-0.23
2023-04-03T00:43:59.090Z,-0.25
2023-04-03T00:46:48.448Z,-0.25
2023-04-03T00:49:39.476Z,-0.28
2023-04-03T00:52:31.492Z,-0.31
2023-04-03T00:55:21.458Z,-0.34
2023-04-03T00:58:11.294Z,-0.35
2023-04-03T01:05:53.362Z,-0.38
2023-04-03T01:08:42.313Z,-0.40
2023-04-03T01:11:31.458Z,-0.42
2023-04-03T01:14:20.435Z,-0.44
2023-04-03T01:17:30.958Z,-0.44
2023-04-03T01:20:36.854Z,-0.45
2023-04-03T01:23:43.077Z,-0.46
2023-04-03T01:26:33.183Z,-0.45
2023-04-03T01:29:21.886Z,-0.46
2023-04-03T01:32:10.758Z,-0.47
2023-04-03T01:34:59.478Z,-0.50
2023-04-03T01:37:48.045Z,-0.49
2023-04-03T01:40:37.390Z,-0.49
2023-04-03T01:43:26.624Z,-0.49
2023-04-03T01:46:17.189Z,-0.49
2023-04-03T01:49:05.968Z,-0.51
2023-04-03T01:51:54.978Z,-0.54
2023-04-03T01:54:43.775Z,-0.56
2023-04-03T01:57:33.088Z,-0.58
2023-04-03T02:00:21.884Z,-0.58
2023-04-03T02:03:10.763Z,-0.58
2023-04-03T02:05:59.833Z,-0.59
2023-04-03T02:08:48.949Z,-0.60
2023-04-03T02:11:37.688Z,-0.64
2023-04-03T02:14:28.427Z,-0.68
2023-04-03T02:17:17.215Z,-0.70
2023-04-03T02:20:06.532Z,-0.72
2023-04-03T02:22:55.601Z,-0.75
2023-04-03T02:25:44.282Z,-0.77
2023-04-03T02:28:33.301Z,-0.80
2023-04-03T02:31:22.152Z,-0.83
2023-04-03T02:34:11.374Z,-0.86
2023-04-03T02:37:00.865Z,-0.89
2023-04-03T02:39:49.653Z,-0.91
2023-04-03T02:42:38.624Z,-0.92
2023-04-03T02:45:27.591Z,-0.94
2023-04-03T02:48:17.756Z,-0.95
2023-04-03T02:51:06.926Z,-0.98
2023-04-03T02:53:55.840Z,-1.01
2023-04-03T02:56:47.540Z,-1.03
2023-04-03T02:59:38.242Z,-1.04
2023-04-03T03:02:27.122Z,-1.06
2023-04-03T03:05:16.098Z,-1.08
2023-04-03T03:08:04.740Z,-1.11
2023-04-03T03:10:53.581Z,-1.15
2023-04-03T03:13:42.523Z,-1.20
2023-04-03T03:16:31.500Z,-1.22
2023-04-03T03:19:20.037Z,-1.25
2023-04-03T03:22:08.890Z,-1.26
2023-04-03T03:24:57.451Z,-1.30
2023-04-03T03:27:46.926Z,-1.34
2023-04-03T03:30:36.211Z,-1.38
2023-04-03T03:33:26.185Z,-1.41
2023-04-03T03:36:14.862Z,-1.44
2023-04-03T03:39:04.002Z,-1.44
2023-04-03T03:41:54.488Z,-1.47
2023-04-03T03:44:46.189Z,-1.49
2023-04-03T03:47:35.582Z,-1.54
2023-04-03T03:50:24.780Z,-1.58
2023-04-03T03:53:13.624Z,-1.63
2023-04-03T03:56:03.009Z,-1.65
2023-04-03T03:58:52.296Z,-1.66
2023-04-03T04:01:41.246Z,-1.69
2023-04-03T04:04:30.260Z,-1.72
2023-04-03T04:07:19.127Z,-1.74
2023-04-03T04:10:08.380Z,-1.77
2023-04-03T04:12:58.633Z,-1.80
2023-04-03T04:15:48.886Z,-1.80
2023-04-03T04:18:38.781Z,-1.81
2023-04-03T04:21:27.819Z,-1.81
2023-04-03T04:24:17.038Z,-1.83
2023-04-03T04:27:06.679Z,-1.84
2023-04-03T04:29:57.034Z,-1.86
2023-04-03T04:32:47.912Z,-1.89
2023-04-03T04:35:37.059Z,-1.90
2023-04-03T04:38:26.899Z,-1.90
2023-04-03T04:41:17.253Z,-1.88
2023-04-03T04:44:07.441Z,-1.88
2023-04-03T04:46:56.788Z,-1.87
2023-04-03T04:49:45.553Z,-1.87
2023-04-03T04:52:34.669Z,-1.87
2023-04-03T04:55:23.328Z,-1.87
2023-04-03T04:58:12.665Z,-1.86
2023-04-03T05:01:10.161Z,-1.84
2023-04-03T05:04:04.188Z,-1.83
2023-04-03T05:06:52.913Z,-1.82
2023-04-03T05:09:45.201Z,-1.82
2023-04-03T05:12:34.416Z,-1.83
2023-04-03T05:15:24.254Z,-1.83
2023-04-03T05:18:13.914Z,-1.83
2023-04-03T05:21:03.356Z,-1.83
2023-04-03T05:23:53.436Z,-1.81
2023-04-03T05:26:44.343Z,-1.79
2023-04-03T05:29:33.533Z,-1.80
2023-04-03T05:32:24.546Z,-1.78
2023-04-03T05:35:17.798Z,-1.78
2023-04-03T05:38:07.216Z,-1.76
2023-04-03T05:40:56.348Z,-1.72
2023-04-03T05:43:45.373Z,-1.68
2023-04-03T05:46:34.223Z,-1.62
2023-04-03T05:49:26.147Z,-1.58
2023-04-03T05:52:27.181Z,-1.54
2023-04-03T05:55:16.965Z,-1.49
2023-04-03T05:58:08.004Z,-1.38
2023-04-03T06:00:58.407Z,-1.24
2023-04-03T06:03:47.792Z,-1.10
2023-04-03T06:06:54.726Z,-0.92
2023-04-03T06:09:43.737Z,-0.75
2023-04-03T06:12:32.909Z,-0.66
2023-04-03T06:15:22.274Z,-0.57
2023-04-03T06:18:11.372Z,-0.53
2023-04-03T06:20:59.969Z,-0.51
2023-04-03T06:23:48.805Z,-0.46
2023-04-03T06:26:37.645Z,-0.44
2023-04-03T06:29:26.540Z,-0.47
2023-04-03T06:32:16.959Z,-0.52
2023-04-03T06:35:06.574Z,-0.49
2023-04-03T06:37:55.452Z,-0.45
2023-04-03T06:40:45.065Z,-0.39
2023-04-03T06:43:34.824Z,-0.44
2023-04-03T06:46:24.344Z,-0.56
2023-04-03T06:49:13.175Z,-0.72
2023-04-03T06:52:02.735Z,-0.80
2023-04-03T06:54:52.999Z,-0.77
2023-04-03T06:57:42.031Z,-0.67
2023-04-03T07:00:31.710Z,-0.59
2023-04-03T07:03:20.427Z,-0.50
2023-04-03T07:06:12.942Z,-0.39
2023-04-03T07:09:01.969Z,-0.28
2023-04-03T07:11:50.645Z,-0.19
2023-04-03T07:14:39.404Z,-0.07
2023-04-03T07:17:28.285Z,0.09
2023-04-03T07:20:17.124Z,0.19
2023-04-03T07:23:06.098Z,0.27
2023-04-03T07:25:55.437Z,0.33
2023-04-03T07:28:45.400Z,0.43
2023-04-03T07:31:35.039Z,0.52
2023-04-03T07:34:23.890Z,0.57
2023-04-03T07:37:12.922Z,0.64
2023-04-03T07:40:04.357Z,0.68
2023-04-03T07:42:53.607Z,0.73
2023-04-03T07:45:42.835Z,0.71
2023-04-03T07:48:31.625Z,0.69
2023-04-03T07:51:20.744Z,0.74
2023-04-03T07:54:09.494Z,0.82
2023-04-03T07:56:58.163Z,0.90
2023-04-03T07:59:47.210Z,0.97
2023-04-03T08:02:35.963Z,1.04
2023-04-03T08:05:24.826Z,1.02
2023-04-03T08:08:15.776Z,0.99
2023-04-03T08:11:06.842Z,1.02
2023-04-03T08:13:56.380Z,1.07
2023-04-03T08:16:47.284Z,1.10
2023-04-03T08:19:36.304Z,1.14
2023-04-03T08:22:25.575Z,1.17
2023-04-03T08:25:14.711Z,1.18
2023-04-03T08:28:03.675Z,1.13
2023-04-03T08:30:52.349Z,1.11
2023-04-03T08:33:41.507Z,1.15
2023-04-03T08:36:31.154Z,1.21
2023-04-03T08:39:19.961Z,1.20
2023-04-03T08:42:42.985Z,1.18
2023-04-03T08:45:49.333Z,1.21
2023-04-03T08:48:41.966Z,1.25
2023-04-03T08:51:31.176Z,1.30
2023-04-03T08:54:30.418Z,1.27
2023-04-03T08:57:27.761Z,1.32
2023-04-03T09:00:24.142Z,1.42
2023-04-03T09:03:24.316Z,1.52
2023-04-03T09:06:26.990Z,1.60
2023-04-03T09:09:18.684Z,1.59
2023-04-03T09:12:26.666Z,1.56
2023-04-03T09:15:35.560Z,1.56
2023-04-03T09:18:38.591Z,1.63
2023-04-03T09:21:36.118Z,1.80
2023-04-03T09:24:26.073Z,1.92
2023-04-03T09:27:14.931Z,1.96
2023-04-03T09:30:04.092Z,2.03
2023-04-03T09:32:55.131Z,2.05
2023-04-03T09:35:47.927Z,2.05
2023-04-03T09:38:38.121Z,2.11
2023-04-03T09:41:26.903Z,2.11
2023-04-03T09:44:26.668Z,2.09
2023-04-03T09:47:20.180Z,2.18
2023-04-03T09:50:15.316Z,2.31
2023-04-03T09:53:26.221Z,2.33
2023-04-03T09:56:18.011Z,2.39
2023-04-03T09:59:14.492Z,2.54
2023-04-03T10:02:35.423Z,2.61
2023-04-03T10:05:37.998Z,2.68
2023-04-03T10:08:33.026Z,2.69
2023-04-03T10:11:22.979Z,2.71
2023-04-03T10:14:18.174Z,2.74
2023-04-03T10:17:36.855Z,2.83
2023-04-03T10:20:37.819Z,2.80
2023-04-03T10:23:38.008Z,2.56
2023-04-03T10:26:46.974Z,2.43
2023-04-03T10:29:58.120Z,2.63
2023-04-03T10:32:56.305Z,2.86
2023-04-03T10:35:57.010Z,2.79
2023-04-03T10:39:27.777Z,2.76
2023-04-03T10:42:36.931Z,2.91
2023-04-03T10:45:32.058Z,2.83
2023-04-03T10:48:34.882Z,2.62
2023-04-03T10:51:39.968Z,2.79
2023-04-03T10:54:39.141Z,2.93
2023-04-03T10:57:30.278Z,2.85
2023-04-03T11:00:21.345Z,2.64
2023-04-03T11:03:27.879Z,2.73
2023-04-03T11:06:19.251Z,3.09
2023-04-03T11:09:49.605Z,3.15
2023-04-03T11:12:49.182Z,2.87
2023-04-03T11:15:38.499Z,2.77
2023-04-03T11:18:40.282Z,2.76
2023-04-03T11:21:42.096Z,2.69
2023-04-03T11:24:36.014Z,2.50
2023-04-03T11:27:25.534Z,2.29
2023-04-03T11:30:20.666Z,2.45
2023-04-03T11:33:21.264Z,2.76
2023-04-03T11:36:27.683Z,2.84
2023-04-03T11:39:25.656Z,2.95
2023-04-03T11:42:17.812Z,3.04
2023-04-03T11:45:28.062Z,3.02
2023-04-03T11:48:24.994Z,3.05
2023-04-03T11:51:13.924Z,2.90
2023-04-03T11:54:45.509Z,2.77
2023-04-03T11:57:47.319Z,2.61
2023-04-03T12:00:47.682Z,2.73
2023-04-03T12:03:43.493Z,3.00
2023-04-03T12:06:36.916Z,3.24
2023-04-03T12:09:29.144Z,3.53
2023-04-03T12:12:31.812Z,3.53
2023-04-03T12:15:22.670Z,3.43
2023-04-03T12:18:44.056Z,3.24
2023-04-03T12:21:32.848Z,3.09
2023-04-03T12:24:30.161Z,3.05
2023-04-03T12:27:30.050Z,3.23
2023-04-03T12:30:27.542Z,3.14
2023-04-03T12:33:30.477Z,3.25
2023-04-03T12:36:54.225Z,3.30
2023-04-03T12:40:09.901Z,3.18
2023-04-03T12:43:32.866Z,3.09
2023-04-03T12:46:27.592Z,2.91
2023-04-03T12:49:34.048Z,2.88
2023-04-03T12:52:34.948Z,3.19
2023-04-03T12:55:24.017Z,3.26
2023-04-03T12:58:27.767Z,3.23
2023-04-03T13:01:19.950Z,3.35
2023-04-03T13:04:12.351Z,3.42
2023-04-03T13:07:02.194Z,3.65
2023-04-03T13:10:00.685Z,3.84
2023-04-03T13:12:54.219Z,3.74
2023-04-03T13:15:47.178Z,3.91
2023-04-03T13:18:37.345Z,3.85
2023-04-03T13:21:28.955Z,3.79
2023-04-03T13:24:17.722Z,3.76
2023-04-03T13:27:08.507Z,3.67
2023-04-03T13:30:00.517Z,3.56
2023-04-03T13:32:49.483Z,3.43
2023-04-03T13:35:41.590Z,3.29
2023-04-03T13:38:35.495Z,3.22
2023-04-03T13:41:37.237Z,3.15
2023-04-03T13:44:40.651Z,3.10
2023-04-03T13:47:41.246Z,3.13
2023-04-03T13:50:30.631Z,3.14
2023-04-03T13:53:19.523Z,3.05
2023-04-03T13:56:17.870Z,3.04
2023-04-03T13:59:24.181Z,3.04
2023-04-03T14:02:13.341Z,3.04
2023-04-03T14:05:05.038Z,3.00
2023-04-03T14:07:55.596Z,3.00
2023-04-03T14:10:45.173Z,3.00
2023-04-03T14:13:33.892Z,2.96
2023-04-03T14:16:26.710Z,2.97
2023-04-03T14:19:26.910Z,3.07
2023-04-03T14:22:24.352Z,3.07
2023-04-03T14:25:13.236Z,3.05
2023-04-03T14:28:02.767Z,2.97
2023-04-03T14:30:52.145Z,2.91
2023-04-03T14:33:42.354Z,2.98
2023-04-03T14:36:32.012Z,3.03
2023-04-03T14:39:21.244Z,3.02
2023-04-03T14:42:20.407Z,3.00
2023-04-03T14:45:12.269Z,3.00
2023-04-03T14:48:01.084Z,3.00
2023-04-03T14:51:04.669Z,3.07
2023-04-03T14:53:54.738Z,2.97
2023-04-03T14:56:45.399Z,2.84
2023-04-03T14:59:34.232Z,2.75
2023-04-03T15:02:33.789Z,2.71
2023-04-03T15:05:22.887Z,2.72
2023-04-03T15:08:24.898Z,2.76
2023-04-03T15:11:14.193Z,2.82
2023-04-03T15:14:02.916Z,2.81
2023-04-03T15:16:51.675Z,2.77
2023-04-03T15:19:41.015Z,2.73
2023-04-03T15:22:29.814Z,2.69
2023-04-03T15:25:19.222Z,2.63
2023-04-03T15:28:17.023Z,2.60
2023-04-03T15:31:07.030Z,2.55
2023-04-03T15:33:55.788Z,2.52
2023-04-03T15:36:44.551Z,2.48
2023-04-03T15:39:34.569Z,2.47
2023-04-03T15:42:23.492Z,2.47
2023-04-03T15:45:12.299Z,2.46
2023-04-03T15:48:01.369Z,2.48
2023-04-03T15:50:53.163Z,2.49
2023-04-03T15:53:41.812Z,2.49
2023-04-03T15:56:31.052Z,2.48
2023-04-03T15:59:20.155Z,2.47
2023-04-03T16:02:11.276Z,2.44
2023-04-03T16:05:00.258Z,2.40
2023-04-03T16:07:49.101Z,2.37
2023-04-03T16:10:38.908Z,2.33
2023-04-03T16:13:27.806Z,2.30
2023-04-03T16:16:16.763Z,2.28
2023-04-03T16:19:06.593Z,2.25
2023-04-03T16:21:56.498Z,2.22
2023-04-03T16:24:45.107Z,2.19
2023-04-03T16:27:33.974Z,2.16
2023-04-03T16:30:22.741Z,2.15
2023-04-03T16:33:12.295Z,2.13
2023-04-03T16:36:01.144Z,2.10
2023-04-03T16:38:50.307Z,2.06
2023-04-03T16:41:39.023Z,2.02
2023-04-03T16:44:28.064Z,2.00
2023-04-03T16:50:09.797Z,1.97
2023-04-03T16:52:58.675Z,1.95
2023-04-03T16:55:47.689Z,1.94
2023-04-03T16:58:36.513Z,1.93
2023-04-03T17:01:25.538Z,1.90
2023-04-03T17:04:14.426Z,1.87
2023-04-03T17:07:07.102Z,1.84
2023-04-03T17:09:56.015Z,1.83
2023-04-03T17:12:44.974Z,1.81
2023-04-03T17:15:33.799Z,1.78
2023-04-03T17:18:23.833Z,1.76
2023-04-03T17:21:14.563Z,1.75
2023-04-03T17:24:09.412Z,1.73
2023-04-03T17:26:58.076Z,1.70
2023-04-03T17:29:47.274Z,1.66
2023-04-03T17:32:36.079Z,1.64
2023-04-03T17:35:24.967Z,1.61
2023-04-03T17:38:13.557Z,1.60
2023-04-03T17:41:05.860Z,1.58
2023-04-03T17:43:57.164Z,1.57
2023-04-03T17:46:46.455Z,1.54
2023-04-03T17:49:35.542Z,1.52
2023-04-03T17:52:25.594Z,1.48
2023-04-03T17:55:15.788Z,1.44
2023-04-03T17:58:04.776Z,1.40
2023-04-03T18:00:54.430Z,1.35
2023-04-03T18:03:43.522Z,1.33
2023-04-03T18:06:37.308Z,1.30
2023-04-03T18:09:30.286Z,1.29
2023-04-03T18:12:19.040Z,1.26
2023-04-03T18:15:08.381Z,1.23
2023-04-03T18:17:58.276Z,1.20
2023-04-03T18:20:47.116Z,1.17
2023-04-03T18:23:37.379Z,1.12
2023-04-03T18:26:28.332Z,1.08
2023-04-03T18:29:17.481Z,1.04
2023-04-03T18:32:09.895Z,1.00
2023-04-03T18:35:00.504Z,0.96
2023-04-03T18:37:49.321Z,0.93
2023-04-03T18:40:38.327Z,0.91
2023-04-03T18:43:28.136Z,0.90
2023-04-03T18:46:17.187Z,0.89
2023-04-03T18:49:06.047Z,0.88
2023-04-03T18:51:55.008Z,0.87
2023-04-03T18:54:43.914Z,0.86
2023-04-03T18:57:32.970Z,0.86
2023-04-03T19:00:21.853Z,0.85
2023-04-03T19:03:14.080Z,0.83
2023-04-03T19:06:04.718Z,0.81
2023-04-03T19:08:53.813Z,0.79
2023-04-03T19:11:42.755Z,0.78
2023-04-03T19:14:31.515Z,0.80
2023-04-03T19:17:20.534Z,0.81
2023-04-03T19:20:11.141Z,0.82
2023-04-03T19:23:00.039Z,0.82
2023-04-03T19:25:58.410Z,0.81
2023-04-03T19:28:48.939Z,0.80
2023-04-03T19:31:38.831Z,0.77
2023-04-03T19:34:27.599Z,0.74
2023-04-03T19:37:17.550Z,0.70
2023-04-03T19:40:07.015Z,0.66
2023-04-03T19:42:56.026Z,0.62
2023-04-03T19:45:46.414Z,0.58
2023-04-03T19:48:35.384Z,0.54
2023-04-03T19:51:24.184Z,0.50
2023-04-03T19:54:12.918Z,0.47
2023-04-03T19:57:02.169Z,0.39
2023-04-03T19:59:51.178Z,0.33
2023-04-03T20:02:39.998Z,0.28
2023-04-03T20:05:28.790Z,0.25
2023-04-03T20:08:17.810Z,0.20
2023-04-03T20:11:07.050Z,0.15
2023-04-03T20:13:56.386Z,0.09
2023-04-03T20:16:45.649Z,0.03
2023-04-03T20:19:35.412Z,-0.05
2023-04-03T20:22:24.140Z,-0.13
2023-04-03T20:25:17.451Z,-0.20
2023-04-03T20:28:15.767Z,-0.27
2023-04-03T20:31:04.818Z,-0.33
2023-04-03T20:33:53.679Z,-0.41
2023-04-03T20:36:48.090Z,-0.46
2023-04-03T20:39:38.222Z,-0.50
2023-04-03T20:42:27.693Z,-0.52
2023-04-03T20:45:16.427Z,-0.53
2023-04-03T20:48:05.997Z,-0.54
2023-04-03T20:50:54.719Z,-0.56
2023-04-03T20:53:45.395Z,-0.58
2023-04-03T20:56:34.201Z,-0.62
2023-04-03T20:59:24.142Z,-0.67
2023-04-03T21:02:13.361Z,-0.70
2023-04-03T21:05:04.265Z,-0.72
2023-04-03T21:08:31.043Z,-0.74
2023-04-03T21:11:57.870Z,-0.77
2023-04-03T21:15:24.222Z,-0.81
2023-04-03T21:18:13.145Z,-0.83
2023-04-03T21:21:03.112Z,-0.83
2023-04-03T21:23:53.832Z,-0.83
2023-04-03T21:26:44.235Z,-0.82
2023-04-03T21:29:32.955Z,-0.83
2023-04-03T21:32:21.703Z,-0.84
2023-04-03T21:35:10.803Z,-0.89
2023-04-03T21:37:59.692Z,-0.92
2023-04-03T21:40:50.934Z,-0.95
2023-04-03T21:43:39.562Z,-0.97
2023-04-03T21:46:28.368Z,-1.00
2023-04-03T21:49:17.379Z,-1.03
2023-04-03T21:52:06.077Z,-1.06
2023-04-03T21:57:56.151Z,-1.06
2023-04-03T22:00:44.982Z,-1.09
2023-04-03T22:03:35.034Z,-1.11
2023-04-03T22:06:23.803Z,-1.13
2023-04-03T22:09:12.918Z,-1.18
2023-04-03T22:12:02.922Z,-1.23
2023-04-03T22:14:51.836Z,-1.31
2023-04-03T22:17:40.734Z,-1.40
2023-04-03T22:20:29.661Z,-1.46
2023-04-03T22:23:24.358Z,-1.53
2023-04-03T22:26:13.954Z,-1.60
2023-04-03T22:29:03.769Z,-1.67
2023-04-03T22:31:52.990Z,-1.73
2023-04-03T22:34:41.842Z,-1.76
2023-04-03T22:37:30.984Z,-1.80
2023-04-03T22:40:19.717Z,-1.79
2023-04-03T22:43:08.661Z,-1.80
2023-04-03T22:45:59.591Z,-1.82
2023-04-03T22:48:48.712Z,-1.84
2023-04-03T22:51:37.429Z,-1.84
2023-04-03T22:54:26.803Z,-1.83
2023-04-03T22:57:16.340Z,-1.84
2023-04-03T23:00:05.472Z,-1.87
2023-04-03T23:02:54.835Z,-1.92
2023-04-03T23:05:43.697Z,-1.97
2023-04-03T23:08:33.831Z,-2.04
2023-04-03T23:11:22.972Z,-2.10
2023-04-03T23:14:11.544Z,-2.18
2023-04-03T23:17:05.592Z,-2.23
2023-04-03T23:19:54.184Z,-2.29
2023-04-03T23:22:44.428Z,-2.31
2023-04-03T23:25:33.742Z,-2.32
2023-04-03T23:28:22.880Z,-2.33
2023-04-03T23:31:11.786Z,-2.35
2023-04-03T23:34:01.169Z,-2.36
2023-04-03T23:36:49.750Z,-2.39
2023-04-03T23:39:38.382Z,-2.43
2023-04-03T23:42:27.190Z,-2.49
2023-04-03T23:45:16.137Z,-2.55
2023-04-03T23:48:04.967Z,-2.61
2023-04-03T23:50:53.720Z,-2.66
2023-04-03T23:53:42.609Z,-2.70
2023-04-03T23:56:31.628Z,-2.72
2023-04-03T23:59:20.379Z,-2.76
